TimeCST,TemperatureF,Dew PointF,Humidity,Sea Level PressureIn,VisibilityMPH,Wind Direction,Wind SpeedMPH,Gust SpeedMPH,PrecipitationIn,Events,Conditions,WindDirDegrees,DateUTC
12:52 AM,39.0,28.9,67,30.30,10.0,SW,5.8,-,N/A,,Partly Cloudy,230,2013-02-03 06:52:00
1:52 AM,37.4,28.4,70,30.28,10.0,WSW,8.1,-,N/A,,Partly Cloudy,250,2013-02-03 07:52:00
2:52 AM,39.0,28.0,65,30.28,10.0,SW,3.5,-,N/A,,Clear,230,2013-02-03 08:52:00
3:52 AM,37.0,27.0,67,30.28,10.0,Calm,Calm,-,N/A,,Clear,0,2013-02-03 09:52:00
4:52 AM,41.0,26.1,55,30.27,10.0,Calm,Calm,-,N/A,,Clear,0,2013-02-03 10:52:00
5:52 AM,39.2,26.6,61,30.29,10.0,North,9.2,-,N/A,,Clear,10,2013-02-03 11:52:00
6:52 AM,37.0,26.1,65,30.31,10.0,North,8.1,-,N/A,,Partly Cloudy,360,2013-02-03 12:52:00
7:52 AM,42.1,26.1,53,30.32,10.0,NNE,8.1,-,N/A,,Partly Cloudy,30,2013-02-03 13:52:00
8:52 AM,46.0,28.9,51,30.32,10.0,NE,8.1,-,N/A,,Partly Cloudy,50,2013-02-03 14:52:00
9:52 AM,50.0,26.1,39,30.31,10.0,East,10.4,-,N/A,,Scattered Clouds,80,2013-02-03 15:52:00
10:52 AM,54.0,27.0,35,30.29,10.0,East,10.4,-,N/A,,Partly Cloudy,100,2013-02-03 16:52:00
11:52 AM,57.0,27.0,32,30.26,10.0,SE,10.4,-,N/A,,Scattered Clouds,140,2013-02-03 17:52:00
12:52 PM,57.9,27.0,31,30.21,10.0,SSE,12.7,-,N/A,,Mostly Cloudy,150,2013-02-03 18:52:00
1:52 PM,59.0,27.0,29,30.16,10.0,South,10.4,-,N/A,,Mostly Cloudy,170,2013-02-03 19:52:00
2:52 PM,60.1,28.0,30,30.12,10.0,SSE,16.1,23.0,N/A,,Overcast,160,2013-02-03 20:52:00
3:52 PM,57.9,28.0,32,30.08,10.0,South,13.8,-,N/A,,Overcast,170,2013-02-03 21:52:00
4:52 PM,57.0,28.9,34,30.05,10.0,SSE,10.4,-,N/A,,Overcast,150,2013-02-03 22:52:00
5:52 PM,54.0,30.0,40,30.03,10.0,SSE,11.5,-,N/A,,Overcast,150,2013-02-03 23:52:00
6:52 PM,53.1,30.9,43,30.01,10.0,SSE,11.5,-,N/A,,Overcast,150,2013-02-04 00:52:00
7:52 PM,53.1,30.9,43,29.99,10.0,SSE,12.7,-,N/A,,Overcast,150,2013-02-04 01:52:00
8:52 PM,52.0,30.0,43,29.96,10.0,SSE,16.1,-,N/A,,Overcast,160,2013-02-04 02:52:00
9:52 PM,52.0,30.9,45,29.94,10.0,SSE,12.7,-,N/A,,Overcast,160,2013-02-04 03:52:00
10:52 PM,53.1,30.0,41,29.92,10.0,South,13.8,-,N/A,,Overcast,170,2013-02-04 04:52:00
11:52 PM,52.0,30.0,43,29.89,10.0,SSE,13.8,-,N/A,,Overcast,160,2013-02-04 05:52:00